Glazier, Texas
Current Conditions -  °F | °C
As of 12:35 PM on Sunday 21 Dec 2014 (Local Time) from KHHF Reporting Station
Overcast Overcast  
Wind Chill: 42°   Ceiling: 1500
Heat Index: 46°   Visibility: 10mi
Dew Point: 40°   Wind: 9mph
Humidity: 79%   Direction: 170°S
Pressure: 29.75"   Gusts: NA
Location:  35.8376°N, 100.27°W
Report Text: KHHF 211835Z AUTO 17008KT 10SM OVC015 08/05 A2975 RMK AO2 T00800046
Loading
Personal Weather Stations






























Interactive Weather Map New forecast layout! Learn more

10-Day Weather Forecast

Advertisements
Track Severe Weather on mobile